createdAt,value
2023-03-07T00:00:17.008Z,5.40
2023-03-07T00:02:43.935Z,5.40
2023-03-07T00:05:10.903Z,5.30
2023-03-07T00:07:37.800Z,5.30
2023-03-07T00:10:04.968Z,5.30
2023-03-07T00:12:31.876Z,5.30
2023-03-07T00:14:58.806Z,5.30
2023-03-07T00:17:25.714Z,5.30
2023-03-07T00:19:52.607Z,5.30
2023-03-07T00:22:19.446Z,5.30
2023-03-07T00:24:48.066Z,5.30
2023-03-07T00:27:14.936Z,5.30
2023-03-07T00:29:41.833Z,5.30
2023-03-07T00:32:08.819Z,5.30
2023-03-07T00:34:35.802Z,5.30
2023-03-07T00:37:02.724Z,5.30
2023-03-07T00:39:29.592Z,5.30
2023-03-07T00:41:56.515Z,5.30
2023-03-07T00:44:23.412Z,5.30
2023-03-07T00:46:50.370Z,5.30
2023-03-07T00:49:17.392Z,5.30
2023-03-07T00:51:44.342Z,5.30
2023-03-07T00:54:11.526Z,5.30
2023-03-07T00:56:38.392Z,5.30
2023-03-07T00:59:05.491Z,5.30
2023-03-07T01:01:32.699Z,5.30
2023-03-07T01:03:59.554Z,5.30
2023-03-07T01:06:28.313Z,5.30
2023-03-07T01:08:56.268Z,5.30
2023-03-07T01:11:23.526Z,5.30
2023-03-07T01:13:50.406Z,5.30
2023-03-07T01:16:18.788Z,5.30
2023-03-07T01:18:48.689Z,5.30
2023-03-07T01:21:17.705Z,5.30
2023-03-07T01:23:44.755Z,5.30
2023-03-07T01:26:17.744Z,5.30
2023-03-07T01:28:44.738Z,5.30
2023-03-07T01:31:12.422Z,5.20
2023-03-07T01:33:41.224Z,5.20
2023-03-07T01:36:18.452Z,5.20
2023-03-07T01:38:47.920Z,5.20
2023-03-07T01:41:15.476Z,5.10
2023-03-07T01:43:43.571Z,5.10
2023-03-07T01:46:18.350Z,5.10
2023-03-07T01:49:12.064Z,5.10
2023-03-07T01:51:41.330Z,5.10
2023-03-07T01:54:09.283Z,5.00
2023-03-07T01:56:37.693Z,5.00
2023-03-07T01:59:05.537Z,5.00
2023-03-07T02:01:33.418Z,5.00
2023-03-07T02:04:18.945Z,5.00
2023-03-07T02:06:45.930Z,5.00
2023-03-07T02:09:16.427Z,4.90
2023-03-07T02:11:44.384Z,4.90
2023-03-07T02:14:11.716Z,4.90
2023-03-07T02:16:39.057Z,4.90
2023-03-07T02:19:15.016Z,4.90
2023-03-07T02:22:05.660Z,4.80
2023-03-07T02:24:35.371Z,4.80
2023-03-07T02:27:02.272Z,4.80
2023-03-07T02:29:29.743Z,4.70
2023-03-07T02:31:56.718Z,4.70
2023-03-07T02:34:25.356Z,4.70
2023-03-07T02:37:22.061Z,4.70
2023-03-07T02:39:50.181Z,4.70
2023-03-07T02:42:23.598Z,4.60
2023-03-07T02:45:00.593Z,4.60
2023-03-07T02:47:30.656Z,4.60
2023-03-07T02:49:58.657Z,4.50
2023-03-07T02:52:28.014Z,4.60
2023-03-07T02:54:55.064Z,4.50
2023-03-07T02:57:24.009Z,4.50
2023-03-07T02:59:50.980Z,4.50
2023-03-07T03:02:17.862Z,4.50
2023-03-07T03:04:46.236Z,4.50
2023-03-07T03:07:13.979Z,4.50
2023-03-07T03:09:40.964Z,4.40
2023-03-07T03:12:07.986Z,4.50
2023-03-07T03:14:35.793Z,4.40
2023-03-07T03:17:02.669Z,4.40
2023-03-07T03:19:29.815Z,4.40
2023-03-07T03:21:56.932Z,4.40
2023-03-07T03:24:24.583Z,4.40
2023-03-07T03:26:55.187Z,4.30
2023-03-07T03:29:22.529Z,4.30
2023-03-07T03:31:49.489Z,4.30
2023-03-07T03:34:16.820Z,4.30
2023-03-07T03:36:43.778Z,4.30
2023-03-07T03:39:11.211Z,4.30
2023-03-07T03:41:44.632Z,4.20
2023-03-07T03:44:11.885Z,4.20
2023-03-07T03:46:38.828Z,4.30
2023-03-07T03:49:05.875Z,4.20
2023-03-07T03:51:33.725Z,4.20
2023-03-07T03:54:00.679Z,4.20
2023-03-07T03:56:27.997Z,4.20
2023-03-07T03:58:55.523Z,4.20
2023-03-07T04:01:23.627Z,4.10
2023-03-07T04:03:51.801Z,4.10
2023-03-07T04:06:20.347Z,4.10
2023-03-07T04:08:47.648Z,4.10
2023-03-07T04:11:14.885Z,4.10
2023-03-07T04:13:42.509Z,4.10
2023-03-07T04:16:09.820Z,4.10
2023-03-07T04:18:37.257Z,4.10
2023-03-07T04:21:05.786Z,4.10
2023-03-07T04:23:33.034Z,4.10
2023-03-07T04:26:01.673Z,4.00
2023-03-07T04:28:49.523Z,4.00
2023-03-07T04:31:24.581Z,4.00
2023-03-07T04:33:52.086Z,4.00
2023-03-07T04:36:19.258Z,4.00
2023-03-07T04:38:46.920Z,3.90
2023-03-07T04:41:15.025Z,3.90
2023-03-07T04:43:42.447Z,3.90
2023-03-07T04:46:10.824Z,3.90
2023-03-07T04:48:38.608Z,3.80
2023-03-07T04:51:05.671Z,3.80
2023-03-07T04:53:32.689Z,3.70
2023-03-07T04:56:00.202Z,3.70
2023-03-07T04:58:28.075Z,3.70
2023-03-07T05:00:56.969Z,3.60
2023-03-07T05:03:26.291Z,3.60
2023-03-07T05:05:54.019Z,3.60
2023-03-07T05:08:21.895Z,3.60
2023-03-07T05:10:49.506Z,3.60
2023-03-07T05:13:16.423Z,3.50
2023-03-07T05:15:49.714Z,3.50
2023-03-07T05:18:16.955Z,3.50
2023-03-07T05:20:44.267Z,3.50
2023-03-07T05:23:11.114Z,3.40
2023-03-07T05:25:38.007Z,3.40
2023-03-07T05:28:04.874Z,3.40
2023-03-07T05:30:31.812Z,3.40
2023-03-07T05:32:59.078Z,3.30
2023-03-07T05:35:26.417Z,3.30
2023-03-07T05:37:55.143Z,3.30
2023-03-07T05:40:22.278Z,3.30
2023-03-07T05:42:49.914Z,3.20
2023-03-07T05:45:18.055Z,3.20
2023-03-07T05:47:45.415Z,3.20
2023-03-07T05:50:13.696Z,3.20
2023-03-07T05:52:41.572Z,3.20
2023-03-07T05:55:08.910Z,3.20
2023-03-07T05:57:35.874Z,3.20
2023-03-07T06:00:06.197Z,3.20
2023-03-07T06:02:41.770Z,3.10
2023-03-07T06:05:12.708Z,3.10
2023-03-07T06:07:39.616Z,3.10
2023-03-07T06:10:07.678Z,3.10
2023-03-07T06:12:34.680Z,3.00
2023-03-07T06:15:01.552Z,3.00
2023-03-07T06:17:28.831Z,2.90
2023-03-07T06:19:55.697Z,2.90
2023-03-07T06:22:22.872Z,2.90
2023-03-07T06:24:49.819Z,2.90
2023-03-07T06:27:16.749Z,2.90
2023-03-07T06:29:43.823Z,2.80
2023-03-07T06:32:10.996Z,2.80
2023-03-07T06:34:38.295Z,2.80
2023-03-07T06:37:05.539Z,2.80
2023-03-07T06:39:32.383Z,2.80
2023-03-07T06:42:01.437Z,2.70
2023-03-07T06:44:28.371Z,2.70
2023-03-07T06:46:55.330Z,2.70
2023-03-07T06:49:22.746Z,2.70
2023-03-07T06:51:50.330Z,2.60
2023-03-07T06:54:17.607Z,2.60
2023-03-07T06:56:45.555Z,2.60
2023-03-07T06:59:16.232Z,2.60
2023-03-07T07:01:43.444Z,2.60
2023-03-07T07:04:11.278Z,2.50
2023-03-07T07:06:40.794Z,2.50
2023-03-07T07:09:07.801Z,2.50
2023-03-07T07:11:38.770Z,2.50
2023-03-07T07:14:09.300Z,2.50
2023-03-07T07:16:37.527Z,2.40
2023-03-07T07:19:05.409Z,2.40
2023-03-07T07:21:34.687Z,2.40
2023-03-07T07:24:01.685Z,2.40
2023-03-07T07:26:28.854Z,2.40
2023-03-07T07:28:57.987Z,2.40
2023-03-07T07:31:24.886Z,2.40
2023-03-07T07:33:51.901Z,2.40
2023-03-07T07:36:20.717Z,2.40
2023-03-07T07:38:48.875Z,2.40
2023-03-07T07:41:15.794Z,2.30
2023-03-07T07:43:42.923Z,2.30
2023-03-07T07:46:19.943Z,2.30
2023-03-07T07:48:48.085Z,2.30
2023-03-07T07:51:16.090Z,2.30
2023-03-07T07:53:43.119Z,2.30
2023-03-07T07:56:10.178Z,2.30
2023-03-07T07:58:37.151Z,2.30
2023-03-07T08:01:23.401Z,2.30
2023-03-07T08:03:50.420Z,2.30
2023-03-07T08:06:21.778Z,2.30
2023-03-07T08:08:48.964Z,2.30
2023-03-07T08:11:16.617Z,2.30
2023-03-07T08:13:43.617Z,2.40
2023-03-07T08:16:17.596Z,2.40
2023-03-07T08:18:48.648Z,2.40
2023-03-07T08:21:15.545Z,2.40
2023-03-07T08:23:42.529Z,2.50
2023-03-07T08:26:10.327Z,2.50
2023-03-07T08:28:37.563Z,2.50
2023-03-07T08:31:12.086Z,2.50
2023-03-07T08:33:39.241Z,2.60
2023-03-07T08:36:06.877Z,2.60
2023-03-07T08:38:34.007Z,2.70
2023-03-07T08:41:02.016Z,2.70
2023-03-07T08:43:29.232Z,2.70
2023-03-07T08:45:56.502Z,2.70
2023-03-07T08:48:23.869Z,2.80
2023-03-07T08:50:51.171Z,2.80
2023-03-07T08:53:18.114Z,2.80
2023-03-07T08:55:45.125Z,2.90
2023-03-07T08:58:11.994Z,3.00
2023-03-07T09:00:39.002Z,3.10
2023-03-07T09:03:06.429Z,3.30
2023-03-07T09:05:36.258Z,3.50
2023-03-07T09:08:03.481Z,4.00
2023-03-07T09:10:30.314Z,4.50
2023-03-07T09:12:57.276Z,5.20
2023-03-07T09:15:24.135Z,5.80
2023-03-07T09:17:51.008Z,6.50
2023-03-07T09:20:18.449Z,7.20
2023-03-07T09:22:46.878Z,7.70
2023-03-07T09:25:13.927Z,8.00
2023-03-07T09:27:40.866Z,8.40
2023-03-07T09:30:08.099Z,8.80
2023-03-07T09:32:35.070Z,9.30
2023-03-07T09:35:02.005Z,9.70
2023-03-07T09:37:28.880Z,10.20
2023-03-07T09:39:55.700Z,10.50
2023-03-07T09:42:41.378Z,10.50
2023-03-07T09:45:18.644Z,10.40
2023-03-07T09:48:04.804Z,10.30
2023-03-07T09:50:34.700Z,10.10
2023-03-07T09:53:03.219Z,10.00
2023-03-07T09:55:31.170Z,9.90
2023-03-07T09:58:00.173Z,9.70
2023-03-07T10:00:33.320Z,9.60
2023-03-07T10:03:03.227Z,9.50
2023-03-07T10:05:32.816Z,9.40
2023-03-07T10:08:01.455Z,9.30
2023-03-07T10:10:34.504Z,9.30
2023-03-07T10:13:07.591Z,9.30
2023-03-07T10:15:50.064Z,9.20
2023-03-07T10:18:24.707Z,9.20
2023-03-07T10:20:51.769Z,9.20
2023-03-07T10:23:18.794Z,9.30
2023-03-07T10:25:51.639Z,9.30
2023-03-07T10:28:31.504Z,9.40
2023-03-07T10:31:11.352Z,9.60
2023-03-07T10:33:40.367Z,9.80
2023-03-07T10:36:09.179Z,10.00
2023-03-07T10:38:55.128Z,10.20
2023-03-07T10:41:22.608Z,10.30
2023-03-07T10:43:50.804Z,10.30
2023-03-07T10:46:26.827Z,10.40
2023-03-07T10:49:13.103Z,10.70
2023-03-07T10:51:40.036Z,10.80
2023-03-07T10:54:12.513Z,10.90
2023-03-07T10:56:39.357Z,10.90
2023-03-07T10:59:10.104Z,11.10
2023-03-07T11:01:38.471Z,11.30
2023-03-07T11:04:21.033Z,11.60
2023-03-07T11:06:50.965Z,12.00
2023-03-07T11:09:27.025Z,12.50
2023-03-07T11:11:56.917Z,13.00
2023-03-07T11:14:24.476Z,13.50
2023-03-07T11:16:52.664Z,14.10
2023-03-07T11:19:33.538Z,14.50
2023-03-07T11:22:02.311Z,15.00
2023-03-07T11:24:30.653Z,15.50
2023-03-07T11:26:58.816Z,15.80
2023-03-07T11:29:26.157Z,15.90
2023-03-07T11:31:53.036Z,15.90
2023-03-07T11:34:24.404Z,15.70
2023-03-07T11:36:54.928Z,15.50
2023-03-07T11:39:45.231Z,15.50
2023-03-07T11:42:16.830Z,15.40
2023-03-07T11:44:46.708Z,15.50
2023-03-07T11:47:20.080Z,15.40
2023-03-07T11:50:00.611Z,15.40
2023-03-07T11:52:40.848Z,15.20
2023-03-07T11:55:27.960Z,14.90
2023-03-07T11:58:05.394Z,14.80
2023-03-07T12:00:51.207Z,14.70
2023-03-07T12:03:36.984Z,14.50
2023-03-07T12:06:22.655Z,14.40
2023-03-07T12:08:55.329Z,14.20
2023-03-07T12:11:41.066Z,13.90
2023-03-07T12:14:07.973Z,13.70
2023-03-07T12:16:40.968Z,13.50
2023-03-07T12:19:26.651Z,13.30
2023-03-07T12:22:05.722Z,13.10
2023-03-07T12:24:43.696Z,12.90
2023-03-07T12:27:14.628Z,12.60
2023-03-07T12:29:44.548Z,12.30
2023-03-07T12:32:16.768Z,12.10
2023-03-07T12:34:46.334Z,11.90
2023-03-07T12:37:16.281Z,11.80
2023-03-07T12:39:46.423Z,11.70
2023-03-07T12:42:25.612Z,11.60
2023-03-07T12:44:58.828Z,11.40
2023-03-07T12:47:25.714Z,11.30
2023-03-07T12:50:10.988Z,11.20
2023-03-07T12:52:44.270Z,11.00
2023-03-07T12:55:11.155Z,10.80
2023-03-07T12:57:41.194Z,10.70
2023-03-07T13:00:09.246Z,10.50
2023-03-07T13:02:42.014Z,10.40
2023-03-07T13:05:16.856Z,10.20
2023-03-07T13:07:44.555Z,10.10
2023-03-07T13:10:15.127Z,9.90
2023-03-07T13:12:42.110Z,9.80
2023-03-07T13:15:18.207Z,9.60
2023-03-07T13:17:45.115Z,9.50
2023-03-07T13:20:14.961Z,9.40
2023-03-07T13:22:41.826Z,9.20
2023-03-07T13:25:20.968Z,9.00
2023-03-07T13:27:58.255Z,8.90
2023-03-07T13:30:29.920Z,8.80
2023-03-07T13:33:06.689Z,8.80
2023-03-07T13:35:33.640Z,8.70
2023-03-07T13:38:02.536Z,8.70
2023-03-07T13:40:30.451Z,8.60
2023-03-07T13:42:57.529Z,8.50
2023-03-07T13:45:39.962Z,8.50
2023-03-07T13:48:33.020Z,8.40
2023-03-07T13:51:02.681Z,8.30
2023-03-07T13:53:43.618Z,8.20
2023-03-07T13:56:16.349Z,8.20
2023-03-07T13:58:52.618Z,8.20
2023-03-07T14:01:42.824Z,8.20
2023-03-07T14:04:39.583Z,8.20
2023-03-07T14:07:26.356Z,8.20
2023-03-07T14:09:57.303Z,8.20
2023-03-07T14:12:27.269Z,8.20
2023-03-07T14:14:54.915Z,8.20
2023-03-07T14:17:29.370Z,8.10
2023-03-07T14:20:11.414Z,8.20
2023-03-07T14:22:38.365Z,8.20
2023-03-07T14:25:11.233Z,8.10
2023-03-07T14:27:56.948Z,8.10
2023-03-07T14:30:24.934Z,8.00
2023-03-07T14:32:52.418Z,8.00
2023-03-07T14:35:34.599Z,7.90
2023-03-07T14:38:01.695Z,7.80
2023-03-07T14:40:46.903Z,7.80
2023-03-07T14:43:21.220Z,7.80
2023-03-07T14:46:08.501Z,7.70
2023-03-07T14:48:41.646Z,7.70
2023-03-07T14:51:16.155Z,7.60
2023-03-07T14:53:43.588Z,7.50
2023-03-07T14:56:10.854Z,7.50
2023-03-07T14:58:46.608Z,7.50
2023-03-07T15:01:16.095Z,7.50
2023-03-07T15:03:53.511Z,7.50
2023-03-07T15:06:21.699Z,7.50
2023-03-07T15:08:49.435Z,7.50
2023-03-07T15:11:16.335Z,7.50
2023-03-07T15:13:43.205Z,7.50
2023-03-07T15:16:12.624Z,7.50
2023-03-07T15:18:42.049Z,7.50
2023-03-07T15:21:13.533Z,7.60
2023-03-07T15:23:40.517Z,7.60
2023-03-07T15:26:10.865Z,7.60
2023-03-07T15:28:40.470Z,7.60
2023-03-07T15:31:08.837Z,7.60
2023-03-07T15:33:35.976Z,7.60
2023-03-07T15:36:16.466Z,7.60
2023-03-07T15:38:48.013Z,7.50
2023-03-07T15:41:44.249Z,7.40
2023-03-07T15:44:11.045Z,7.30
2023-03-07T15:46:43.259Z,7.20
2023-03-07T15:49:22.506Z,7.10
2023-03-07T15:51:54.400Z,7.00
2023-03-07T15:54:21.244Z,6.90
2023-03-07T15:56:53.803Z,6.80
2023-03-07T15:59:25.141Z,6.70
2023-03-07T16:01:52.030Z,6.70
2023-03-07T16:04:45.325Z,6.60
2023-03-07T16:07:16.343Z,6.50
2023-03-07T16:09:43.271Z,6.50
2023-03-07T16:12:14.725Z,6.50
2023-03-07T16:14:41.596Z,6.50
2023-03-07T16:17:48.633Z,6.40
2023-03-07T16:20:16.607Z,6.40
2023-03-07T16:22:44.493Z,6.30
2023-03-07T16:25:11.939Z,6.30
2023-03-07T16:27:39.392Z,6.30
2023-03-07T16:30:13.922Z,6.20
2023-03-07T16:32:40.902Z,6.20
2023-03-07T16:35:17.983Z,6.20
2023-03-07T16:37:45.029Z,6.10
2023-03-07T16:40:13.205Z,6.10
2023-03-07T16:42:42.605Z,6.10
2023-03-07T16:45:33.145Z,6.10
2023-03-07T16:48:01.060Z,6.00
2023-03-07T16:50:32.446Z,6.00
2023-03-07T16:52:59.856Z,6.00
2023-03-07T16:55:26.933Z,6.00
2023-03-07T16:57:56.177Z,5.90
2023-03-07T17:00:24.884Z,5.90
2023-03-07T17:02:52.672Z,5.90
2023-03-07T17:05:25.609Z,5.80
2023-03-07T17:07:53.154Z,5.90
2023-03-07T17:10:20.389Z,5.80
2023-03-07T17:12:47.593Z,5.80
2023-03-07T17:15:16.012Z,5.80
2023-03-07T17:17:43.337Z,5.80
2023-03-07T17:20:14.390Z,5.70
2023-03-07T17:22:41.325Z,5.70
2023-03-07T17:25:08.395Z,5.60
2023-03-07T17:27:37.171Z,5.60
2023-03-07T17:30:04.444Z,5.60
2023-03-07T17:32:31.329Z,5.50
2023-03-07T17:34:58.186Z,5.60
2023-03-07T17:37:25.038Z,5.50
2023-03-07T17:39:51.905Z,5.50
2023-03-07T17:42:18.784Z,5.50
2023-03-07T17:44:45.835Z,5.40
2023-03-07T17:47:12.700Z,5.40
2023-03-07T17:49:39.705Z,5.40
2023-03-07T17:52:07.282Z,5.30
2023-03-07T17:54:34.556Z,5.30
2023-03-07T17:57:01.822Z,5.30
2023-03-07T17:59:30.088Z,5.30
2023-03-07T18:01:57.943Z,5.20
2023-03-07T18:04:25.005Z,5.20
2023-03-07T18:06:51.887Z,5.10
2023-03-07T18:09:22.949Z,5.10
2023-03-07T18:11:49.824Z,5.10
2023-03-07T18:14:17.010Z,5.10
2023-03-07T18:16:44.388Z,5.00
2023-03-07T18:19:23.999Z,5.00
2023-03-07T18:21:53.253Z,5.00
2023-03-07T18:24:21.862Z,5.00
2023-03-07T18:26:49.688Z,4.90
2023-03-07T18:29:17.253Z,4.90
2023-03-07T18:31:44.735Z,4.80
2023-03-07T18:34:12.157Z,4.80
2023-03-07T18:36:40.165Z,4.80
2023-03-07T18:39:07.433Z,4.70
2023-03-07T18:41:34.366Z,4.70
2023-03-07T18:44:01.511Z,4.70
2023-03-07T18:46:31.044Z,4.70
2023-03-07T18:48:59.324Z,4.60
2023-03-07T18:51:27.063Z,4.60
2023-03-07T18:53:54.733Z,4.60
2023-03-07T18:56:21.659Z,4.50
2023-03-07T18:58:48.605Z,4.50
2023-03-07T19:01:17.008Z,4.50
2023-03-07T19:03:44.665Z,4.40
2023-03-07T19:06:12.358Z,4.40
2023-03-07T19:08:39.864Z,4.40
2023-03-07T19:11:07.871Z,4.40
2023-03-07T19:13:35.356Z,4.30
2023-03-07T19:16:03.915Z,4.30
2023-03-07T19:18:30.936Z,4.20
2023-03-07T19:20:57.897Z,4.20
2023-03-07T19:23:25.028Z,4.20
2023-03-07T19:25:51.975Z,4.10
2023-03-07T19:28:18.934Z,4.10
2023-03-07T19:30:45.855Z,4.10
2023-03-07T19:33:12.797Z,4.10
2023-03-07T19:35:39.870Z,4.00
2023-03-07T19:38:06.781Z,4.00
2023-03-07T19:40:33.786Z,4.00
2023-03-07T19:43:00.716Z,3.90
2023-03-07T19:45:27.784Z,3.90
2023-03-07T19:47:54.747Z,3.90
2023-03-07T19:50:21.820Z,3.80
2023-03-07T19:52:48.758Z,3.80
2023-03-07T19:55:15.866Z,3.70
2023-03-07T19:57:42.932Z,3.70
2023-03-07T20:00:10.195Z,3.70
2023-03-07T20:02:39.621Z,3.70
2023-03-07T20:05:08.272Z,3.60
2023-03-07T20:07:35.239Z,3.60
2023-03-07T20:10:02.152Z,3.60
2023-03-07T20:12:31.169Z,3.60
2023-03-07T20:14:58.008Z,3.60
2023-03-07T20:17:24.856Z,3.50
2023-03-07T20:19:52.116Z,3.50
2023-03-07T20:22:20.697Z,3.50
2023-03-07T20:24:49.201Z,3.40
2023-03-07T20:27:20.468Z,3.50
2023-03-07T20:29:50.313Z,3.40
2023-03-07T20:32:18.692Z,3.30
2023-03-07T20:34:45.912Z,3.40
2023-03-07T20:37:18.961Z,3.30
2023-03-07T20:39:46.135Z,3.30
2023-03-07T20:42:13.130Z,3.30
2023-03-07T20:44:40.034Z,3.30
2023-03-07T20:47:06.875Z,3.30
2023-03-07T20:49:33.794Z,3.20
2023-03-07T20:52:00.699Z,3.20
2023-03-07T20:54:27.696Z,3.20
2023-03-07T20:56:54.878Z,3.20
2023-03-07T20:59:21.821Z,3.20
2023-03-07T21:01:48.985Z,3.10
2023-03-07T21:04:18.462Z,3.10
2023-03-07T21:06:45.708Z,3.10
2023-03-07T21:09:13.634Z,3.10
2023-03-07T21:11:44.939Z,3.00
2023-03-07T21:14:12.712Z,3.00
2023-03-07T21:16:39.797Z,3.00
2023-03-07T21:19:07.377Z,3.00
2023-03-07T21:21:35.058Z,3.00
2023-03-07T21:24:02.301Z,2.90
2023-03-07T21:26:30.586Z,2.90
2023-03-07T21:28:57.990Z,2.90
2023-03-07T21:31:26.184Z,2.90
2023-03-07T21:33:54.361Z,2.90
2023-03-07T21:36:21.348Z,2.90
2023-03-07T21:38:48.751Z,2.80
2023-03-07T21:41:17.031Z,2.80
2023-03-07T21:43:44.056Z,2.80
2023-03-07T21:46:11.744Z,2.80
2023-03-07T21:48:38.965Z,2.70
2023-03-07T21:51:06.537Z,2.70
2023-03-07T21:53:33.943Z,2.70
2023-03-07T21:56:02.572Z,2.70
2023-03-07T21:58:30.092Z,2.60
2023-03-07T22:00:57.150Z,2.60
2023-03-07T22:03:24.808Z,2.60
2023-03-07T22:05:52.055Z,2.60
2023-03-07T22:08:20.467Z,2.60
2023-03-07T22:11:00.646Z,2.60
2023-03-07T22:13:28.025Z,2.60
2023-03-07T22:15:58.625Z,2.60
2023-03-07T22:18:25.755Z,2.60
2023-03-07T22:20:52.802Z,2.50
2023-03-07T22:23:19.650Z,2.50
2023-03-07T22:25:46.627Z,2.50
2023-03-07T22:28:16.753Z,2.50
2023-03-07T22:30:43.819Z,2.50
2023-03-07T22:33:11.102Z,2.50
2023-03-07T22:35:38.079Z,2.50
2023-03-07T22:38:04.988Z,2.50
2023-03-07T22:40:31.986Z,2.50
2023-03-07T22:42:58.944Z,2.50
2023-03-07T22:45:25.868Z,2.50
2023-03-07T22:47:52.843Z,2.50
2023-03-07T22:50:19.736Z,2.50
2023-03-07T22:52:46.689Z,2.50
2023-03-07T22:55:13.632Z,2.50
2023-03-07T22:57:40.534Z,2.40
2023-03-07T23:00:08.285Z,2.50
2023-03-07T23:02:35.155Z,2.40
2023-03-07T23:05:02.000Z,2.40
2023-03-07T23:07:29.124Z,2.40
2023-03-07T23:09:55.984Z,2.40
2023-03-07T23:12:22.926Z,2.40
2023-03-07T23:14:49.800Z,2.40
2023-03-07T23:17:16.724Z,2.40
2023-03-07T23:19:43.717Z,2.40
2023-03-07T23:22:10.633Z,2.30
2023-03-07T23:24:37.528Z,2.30
2023-03-07T23:27:04.444Z,2.30
2023-03-07T23:29:31.299Z,2.30
2023-03-07T23:31:58.682Z,2.30
2023-03-07T23:34:25.558Z,2.30
2023-03-07T23:36:52.473Z,2.30
2023-03-07T23:39:19.565Z,2.20
2023-03-07T23:41:46.518Z,2.20
2023-03-07T23:44:13.513Z,2.20
2023-03-07T23:46:40.412Z,2.20
2023-03-07T23:49:07.281Z,2.20
2023-03-07T23:51:34.343Z,2.20
2023-03-07T23:54:01.177Z,2.10
2023-03-07T23:56:28.066Z,2.10
2023-03-07T23:58:54.992Z,2.10
